logo
Search for airport 
image banner adimage banner adimage banner ad
image banner ad

LY2303 - Cacak / Ravan

Located in Preljina, Serbia and Montenegro

ICAO - , IATA -

Data provided by Airmate  

General information

Coordinates: N43°53'55" E20°26'2"
Elevation is 771 feet MSL.
Magnetic variation is 5° East
View others Airports in Srem

Operational data

Special qualification required
Current time UTC:
Current local time:
Weather at : LYKV - Kraljevo / Morava ( 15 km )
METAR: LYKV 251500Z 34007KT 300V040 9999 SCT050 27/11 Q1011 NOSIG
TAF: TAF LYKV 251100Z 2512/2612 33009KT CAVOK TX29/2612Z TN15/2603Z
View NOTAMs / SUP AIP / TFR affecting this airport [VIEW]
Communications frequencies: [VIEW]

Runways:

RWY identifierQFULength (ft)Width (ft)SurfaceLDA (ft)
12122°72038ASPH
30302°72038ASPH

Airport contact information

Address: Preljina Serbia and Montenegro

Satellite view of LY2303